createdAt,value
2023-05-22T00:00:08.594Z,19.57
2023-05-22T00:03:11.330Z,19.56
2023-05-22T00:06:12.867Z,19.55
2023-05-22T00:09:15.118Z,19.55
2023-05-22T00:12:16.629Z,19.55
2023-05-22T00:15:18.245Z,19.55
2023-05-22T00:18:19.811Z,19.54
2023-05-22T00:21:21.983Z,19.53
2023-05-22T00:24:23.566Z,19.53
2023-05-22T00:27:25.137Z,19.52
2023-05-22T00:30:26.641Z,19.52
2023-05-22T00:33:28.187Z,19.52
2023-05-22T00:36:29.812Z,19.51
2023-05-22T00:39:31.363Z,19.51
2023-05-22T00:42:33.346Z,19.50
2023-05-22T00:45:34.977Z,19.51
2023-05-22T00:48:36.567Z,19.51
2023-05-22T00:51:38.174Z,19.49
2023-05-22T00:54:40.045Z,19.49
2023-05-22T00:57:42.068Z,19.49
2023-05-22T01:00:44.249Z,19.49
2023-05-22T01:03:46.671Z,19.49
2023-05-22T01:06:48.599Z,19.48
2023-05-22T01:09:52.575Z,19.48
2023-05-22T01:13:09.096Z,19.48
2023-05-22T01:16:30.078Z,19.48
2023-05-22T01:19:54.065Z,19.49
2023-05-22T01:23:06.975Z,19.46
2023-05-22T01:26:37.624Z,19.47
2023-05-22T01:29:46.459Z,19.46
2023-05-22T01:32:49.595Z,19.46
2023-05-22T01:35:54.044Z,19.44
2023-05-22T01:38:56.443Z,19.44
2023-05-22T01:41:58.386Z,19.43
2023-05-22T01:44:59.891Z,19.43
2023-05-22T01:48:01.483Z,19.44
2023-05-22T01:51:07.590Z,19.46
2023-05-22T01:54:24.073Z,19.46
2023-05-22T01:57:33.670Z,19.46
2023-05-22T02:00:37.526Z,19.44
2023-05-22T02:03:40.346Z,19.44
2023-05-22T02:06:42.927Z,19.44
2023-05-22T02:09:46.177Z,19.46
2023-05-22T02:12:48.371Z,19.46
2023-05-22T02:15:51.088Z,19.45
2023-05-22T02:18:59.127Z,19.45
2023-05-22T02:22:00.748Z,19.44
2023-05-22T02:25:03.584Z,19.43
2023-05-22T02:28:05.166Z,19.44
2023-05-22T02:31:06.939Z,19.43
2023-05-22T02:34:08.465Z,19.43
2023-05-22T02:37:11.493Z,19.44
2023-05-22T02:40:13.147Z,19.43
2023-05-22T02:43:14.680Z,19.44
2023-05-22T02:46:16.934Z,19.44
2023-05-22T02:49:18.490Z,19.44
2023-05-22T02:52:20.044Z,19.44
2023-05-22T02:55:21.688Z,19.44
2023-05-22T02:58:24.990Z,19.44
2023-05-22T03:01:26.669Z,19.44
2023-05-22T03:04:29.571Z,19.44
2023-05-22T03:07:31.740Z,19.44
2023-05-22T03:10:33.534Z,19.44
2023-05-22T03:13:35.535Z,19.44
2023-05-22T03:16:37.108Z,19.44
2023-05-22T03:19:38.796Z,19.44
2023-05-22T03:22:40.526Z,19.44
2023-05-22T03:25:42.329Z,19.43
2023-05-22T03:28:44.783Z,19.43
2023-05-22T03:31:47.012Z,19.43
2023-05-22T03:34:49.695Z,19.42
2023-05-22T03:37:51.237Z,19.43
2023-05-22T03:40:53.414Z,19.42
2023-05-22T03:43:54.943Z,19.43
2023-05-22T03:46:58.400Z,19.42
2023-05-22T03:49:59.997Z,19.41
2023-05-22T03:53:02.566Z,19.41
2023-05-22T03:56:05.998Z,19.42
2023-05-22T03:59:07.504Z,19.41
2023-05-22T04:02:12.811Z,19.41
2023-05-22T04:05:15.681Z,19.39
2023-05-22T04:08:18.395Z,19.39
2023-05-22T04:11:20.963Z,19.39
2023-05-22T04:14:22.464Z,19.38
2023-05-22T04:17:24.094Z,19.38
2023-05-22T04:20:25.712Z,19.38
2023-05-22T04:23:27.203Z,19.38
2023-05-22T04:26:32.066Z,19.37
2023-05-22T04:29:36.210Z,19.37
2023-05-22T04:32:38.286Z,19.36
2023-05-22T04:35:40.879Z,19.37
2023-05-22T04:38:44.790Z,19.35
2023-05-22T04:41:46.342Z,19.36
2023-05-22T04:44:48.241Z,19.34
2023-05-22T04:47:49.931Z,19.34
2023-05-22T04:50:54.172Z,19.36
2023-05-22T04:53:56.036Z,19.35
2023-05-22T04:56:58.121Z,19.34
2023-05-22T05:00:01.261Z,19.34
2023-05-22T05:03:04.322Z,19.34
2023-05-22T05:06:08.265Z,19.35
2023-05-22T05:09:10.137Z,19.36
2023-05-22T05:12:11.993Z,19.34
2023-05-22T05:15:13.653Z,19.35
2023-05-22T05:18:15.651Z,19.33
2023-05-22T05:21:17.546Z,19.33
2023-05-22T05:24:19.173Z,19.33
2023-05-22T05:27:21.535Z,19.32
2023-05-22T05:30:23.343Z,19.34
2023-05-22T05:33:56.609Z,19.32
2023-05-22T05:37:05.612Z,19.33
2023-05-22T05:40:08.731Z,19.33
2023-05-22T05:43:16.390Z,19.33
2023-05-22T05:46:19.416Z,19.33
2023-05-22T05:49:22.468Z,19.32
2023-05-22T05:52:27.041Z,19.33
2023-05-22T05:55:29.077Z,19.33
2023-05-22T05:58:32.290Z,19.32
2023-05-22T06:01:52.229Z,19.32
2023-05-22T06:05:02.160Z,19.33
2023-05-22T06:08:06.020Z,19.33
2023-05-22T06:11:07.694Z,19.33
2023-05-22T06:14:15.215Z,19.32
2023-05-22T06:17:17.297Z,19.32
2023-05-22T06:20:20.449Z,19.32
2023-05-22T06:23:22.355Z,19.32
2023-05-22T06:26:25.767Z,19.33
2023-05-22T06:29:28.545Z,19.33
2023-05-22T06:32:31.617Z,19.33
2023-05-22T06:35:34.252Z,19.34
2023-05-22T06:38:37.842Z,19.34
2023-05-22T06:41:40.040Z,19.34
2023-05-22T06:44:44.660Z,19.35
2023-05-22T06:47:46.268Z,19.35
2023-05-22T06:50:48.289Z,19.36
2023-05-22T06:53:49.914Z,19.37
2023-05-22T06:56:56.405Z,19.37
2023-05-22T07:00:01.038Z,19.38
2023-05-22T07:03:27.203Z,19.38
2023-05-22T07:06:49.897Z,19.37
2023-05-22T07:09:51.489Z,19.39
2023-05-22T07:12:53.694Z,19.39
2023-05-22T07:15:55.519Z,19.39
2023-05-22T07:18:57.639Z,19.40
2023-05-22T07:22:00.388Z,19.40
2023-05-22T07:25:04.601Z,19.40
2023-05-22T07:28:09.048Z,19.41
2023-05-22T07:31:21.830Z,19.41
2023-05-22T07:34:29.874Z,19.42
2023-05-22T07:37:32.164Z,19.43
2023-05-22T07:40:33.772Z,19.44
2023-05-22T07:43:36.277Z,19.42
2023-05-22T07:46:39.184Z,19.44
2023-05-22T07:49:50.671Z,19.44
2023-05-22T07:52:52.773Z,19.44
2023-05-22T07:55:54.395Z,19.45
2023-05-22T07:58:56.303Z,19.44
2023-05-22T08:01:58.721Z,19.45
2023-05-22T08:05:00.469Z,19.46
2023-05-22T08:08:02.978Z,19.46
2023-05-22T08:11:04.964Z,19.47
2023-05-22T08:14:07.531Z,19.47
2023-05-22T08:17:09.089Z,19.47
2023-05-22T08:20:11.788Z,19.48
2023-05-22T08:23:13.717Z,19.48
2023-05-22T08:26:15.935Z,19.48
2023-05-22T08:29:17.436Z,19.48
2023-05-22T08:32:19.023Z,19.49
2023-05-22T08:35:20.539Z,19.49
2023-05-22T08:38:22.344Z,19.50
2023-05-22T08:41:23.926Z,19.50
2023-05-22T08:44:25.642Z,19.49
2023-05-22T08:47:28.427Z,19.51
2023-05-22T08:50:30.065Z,19.49
2023-05-22T08:53:35.530Z,19.51
2023-05-22T08:56:45.465Z,19.50
2023-05-22T08:59:51.598Z,19.51
2023-05-22T09:02:53.604Z,19.52
2023-05-22T09:05:55.216Z,19.51
2023-05-22T09:08:57.700Z,19.53
2023-05-22T09:11:59.443Z,19.52
2023-05-22T09:15:10.827Z,19.55
2023-05-22T09:18:12.822Z,19.54
2023-05-22T09:21:29.728Z,19.55
2023-05-22T09:24:38.839Z,19.55
2023-05-22T09:27:45.839Z,19.57
2023-05-22T09:30:51.941Z,19.57
2023-05-22T09:33:53.955Z,19.57
2023-05-22T09:37:03.240Z,19.58
2023-05-22T09:40:06.951Z,19.58
2023-05-22T09:43:11.913Z,19.58
2023-05-22T09:46:16.590Z,19.59
2023-05-22T09:49:18.224Z,19.58
2023-05-22T09:52:21.520Z,19.58
2023-05-22T09:55:23.875Z,19.59
2023-05-22T09:58:27.148Z,19.59
2023-05-22T10:01:28.965Z,19.60
2023-05-22T10:04:33.082Z,19.61
2023-05-22T10:07:40.060Z,19.61
2023-05-22T10:10:46.748Z,19.61
2023-05-22T10:13:50.036Z,19.60
2023-05-22T10:16:53.275Z,19.61
2023-05-22T10:19:56.563Z,19.60
2023-05-22T10:22:58.711Z,19.60
2023-05-22T10:26:00.237Z,19.60
2023-05-22T10:29:14.699Z,19.62
2023-05-22T10:32:30.422Z,19.62
2023-05-22T10:35:41.076Z,19.64
2023-05-22T10:39:01.075Z,19.66
2023-05-22T10:42:02.839Z,19.65
2023-05-22T10:45:07.722Z,19.68
2023-05-22T10:48:11.699Z,19.69
2023-05-22T10:51:14.865Z,19.70
2023-05-22T10:54:16.467Z,19.70
2023-05-22T10:57:18.723Z,19.73
2023-05-22T11:00:24.407Z,19.75
2023-05-22T11:03:55.779Z,19.77
2023-05-22T11:07:05.316Z,19.77
2023-05-22T11:10:07.331Z,19.77
2023-05-22T11:13:12.198Z,19.79
2023-05-22T11:16:15.960Z,19.79
2023-05-22T11:19:23.894Z,19.77
2023-05-22T11:22:39.748Z,19.79
2023-05-22T11:25:41.944Z,19.77
2023-05-22T11:28:44.065Z,19.77
2023-05-22T11:31:46.258Z,19.78
2023-05-22T11:34:50.358Z,19.79
2023-05-22T11:37:53.166Z,19.79
2023-05-22T11:40:54.677Z,19.78
2023-05-22T11:43:56.182Z,19.80
2023-05-22T11:46:57.808Z,19.80
2023-05-22T11:50:01.019Z,19.82
2023-05-22T11:53:03.819Z,19.82
2023-05-22T11:56:06.762Z,19.84
2023-05-22T11:59:08.266Z,19.85
2023-05-22T12:02:09.780Z,19.85
2023-05-22T12:05:11.931Z,19.88
2023-05-22T12:08:13.554Z,19.90
2023-05-22T12:11:15.209Z,19.90
2023-05-22T12:14:16.821Z,19.91
2023-05-22T12:17:18.427Z,19.92
2023-05-22T12:20:19.963Z,19.91
2023-05-22T12:23:28.424Z,19.94
2023-05-22T12:26:30.415Z,19.94
2023-05-22T12:29:32.156Z,19.94
2023-05-22T12:32:33.695Z,19.94
2023-05-22T12:35:35.207Z,19.95
2023-05-22T12:38:37.779Z,19.96
2023-05-22T12:41:39.615Z,19.97
2023-05-22T12:44:41.326Z,19.97
2023-05-22T12:47:43.128Z,19.97
2023-05-22T12:50:44.901Z,19.97
2023-05-22T12:53:46.411Z,19.97
2023-05-22T12:56:47.909Z,19.99
2023-05-22T12:59:49.491Z,20.00
2023-05-22T13:02:51.094Z,20.01
2023-05-22T13:05:52.640Z,20.01
2023-05-22T13:08:54.133Z,20.02
2023-05-22T13:11:55.745Z,20.03
2023-05-22T13:14:57.417Z,20.04
2023-05-22T13:17:59.220Z,20.06
2023-05-22T13:21:00.875Z,20.06
2023-05-22T13:24:02.524Z,20.07
2023-05-22T13:27:04.167Z,20.08
2023-05-22T13:30:06.889Z,20.09
2023-05-22T13:33:08.466Z,20.10
2023-05-22T13:36:10.160Z,20.12
2023-05-22T13:39:12.215Z,20.12
2023-05-22T13:42:13.780Z,20.15
2023-05-22T13:45:15.316Z,20.15
2023-05-22T13:48:16.846Z,20.17
2023-05-22T13:51:18.357Z,20.17
2023-05-22T13:54:19.879Z,20.18
2023-05-22T14:00:22.847Z,20.20
2023-05-22T14:03:24.411Z,20.22
2023-05-22T14:06:26.000Z,20.22
2023-05-22T14:09:27.643Z,20.23
2023-05-22T14:12:29.254Z,20.24
2023-05-22T14:15:30.803Z,20.23
2023-05-22T14:18:32.373Z,20.25
2023-05-22T14:21:34.034Z,20.24
2023-05-22T14:24:35.730Z,20.26
2023-05-22T14:27:37.285Z,20.26
2023-05-22T14:30:39.063Z,20.27
2023-05-22T14:33:40.579Z,20.27
2023-05-22T14:36:42.743Z,20.30
2023-05-22T14:39:44.313Z,20.30
2023-05-22T14:42:45.941Z,20.30
2023-05-22T14:45:47.447Z,20.30
2023-05-22T14:48:48.986Z,20.33
2023-05-22T14:51:50.575Z,20.33
2023-05-22T14:54:52.192Z,20.34
2023-05-22T14:57:54.262Z,20.36
2023-05-22T15:00:55.840Z,20.38
2023-05-22T15:03:57.379Z,20.40
2023-05-22T15:06:58.884Z,20.40
2023-05-22T15:10:00.816Z,20.44
2023-05-22T15:13:02.451Z,20.44
2023-05-22T15:16:04.205Z,20.44
2023-05-22T15:19:05.826Z,20.45
2023-05-22T15:22:19.392Z,20.44
2023-05-22T15:25:21.630Z,20.44
2023-05-22T15:28:23.221Z,20.44
2023-05-22T15:31:24.749Z,20.45
2023-05-22T15:34:26.294Z,20.45
2023-05-22T15:37:32.172Z,20.46
2023-05-22T15:40:34.108Z,20.46
2023-05-22T15:43:35.898Z,20.47
2023-05-22T15:46:38.682Z,20.48
2023-05-22T15:49:41.068Z,20.49
2023-05-22T15:52:42.585Z,20.50
2023-05-22T15:55:44.081Z,20.51
2023-05-22T15:58:45.607Z,20.51
2023-05-22T16:01:47.276Z,20.51
2023-05-22T16:04:49.226Z,20.50
2023-05-22T16:07:50.811Z,20.51
2023-05-22T16:10:52.360Z,20.52
2023-05-22T16:13:54.237Z,20.50
2023-05-22T16:16:56.389Z,20.51
2023-05-22T16:19:57.917Z,20.51
2023-05-22T16:22:59.433Z,20.51
2023-05-22T16:26:00.970Z,20.49
2023-05-22T16:29:02.514Z,20.50
2023-05-22T16:32:04.472Z,20.49
2023-05-22T16:35:06.331Z,20.48
2023-05-22T16:38:11.666Z,20.48
2023-05-22T16:41:13.196Z,20.47
2023-05-22T16:44:14.732Z,20.47
2023-05-22T16:47:16.345Z,20.48
2023-05-22T16:50:17.964Z,20.47
2023-05-22T16:53:19.720Z,20.46
2023-05-22T16:56:21.229Z,20.46
2023-05-22T16:59:22.781Z,20.46
2023-05-22T17:02:24.470Z,20.47
2023-05-22T17:05:26.016Z,20.47
2023-05-22T17:08:28.361Z,20.46
2023-05-22T17:11:30.038Z,20.47
2023-05-22T17:14:33.429Z,20.46
2023-05-22T17:17:34.957Z,20.48
2023-05-22T17:20:36.485Z,20.47
2023-05-22T17:23:38.748Z,20.48
2023-05-22T17:26:41.007Z,20.49
2023-05-22T17:29:42.529Z,20.49
2023-05-22T17:32:45.082Z,20.48
2023-05-22T17:35:47.382Z,20.49
2023-05-22T17:38:49.260Z,20.52
2023-05-22T17:41:51.300Z,20.53
2023-05-22T17:44:52.815Z,20.52
2023-05-22T17:47:54.320Z,20.54
2023-05-22T17:50:55.954Z,20.53
2023-05-22T17:53:58.927Z,20.54
2023-05-22T17:57:00.834Z,20.55
2023-05-22T18:00:05.226Z,20.57
2023-05-22T18:03:13.369Z,20.57
2023-05-22T18:06:15.094Z,20.58
2023-05-22T18:09:16.713Z,20.58
2023-05-22T18:15:25.939Z,20.59
2023-05-22T18:18:30.113Z,20.59
2023-05-22T18:21:32.173Z,20.60
2023-05-22T18:24:36.388Z,20.60
2023-05-22T18:27:37.992Z,20.61
2023-05-22T18:30:39.790Z,20.62
2023-05-22T18:33:44.726Z,20.63
2023-05-22T18:36:46.205Z,20.63
2023-05-22T18:39:47.760Z,20.65
2023-05-22T18:42:49.284Z,20.67
2023-05-22T18:45:50.898Z,20.67
2023-05-22T18:48:52.487Z,20.68
2023-05-22T18:51:53.975Z,20.66
2023-05-22T18:54:55.675Z,20.67
2023-05-22T18:57:57.237Z,20.69
2023-05-22T19:00:58.892Z,20.69
2023-05-22T19:04:00.526Z,20.69
2023-05-22T19:07:03.290Z,20.71
2023-05-22T19:10:07.937Z,20.70
2023-05-22T19:13:09.741Z,20.70
2023-05-22T19:16:11.345Z,20.70
2023-05-22T19:19:14.558Z,20.70
2023-05-22T19:22:18.141Z,20.69
2023-05-22T19:25:19.955Z,20.70
2023-05-22T19:28:21.699Z,20.69
2023-05-22T19:31:23.201Z,20.69
2023-05-22T19:34:24.777Z,20.70
2023-05-22T19:37:26.289Z,20.70
2023-05-22T19:40:27.784Z,20.70
2023-05-22T19:43:31.168Z,20.70
2023-05-22T19:46:32.810Z,20.70
2023-05-22T19:49:36.997Z,20.69
2023-05-22T19:52:38.753Z,20.70
2023-05-22T19:55:40.248Z,20.69
2023-05-22T19:58:41.839Z,20.69
2023-05-22T20:01:43.447Z,20.69
2023-05-22T20:04:48.230Z,20.69
2023-05-22T20:07:49.974Z,20.66
2023-05-22T20:10:51.528Z,20.66
2023-05-22T20:13:54.390Z,20.65
2023-05-22T20:16:56.204Z,20.64
2023-05-22T20:19:58.743Z,20.63
2023-05-22T20:23:00.307Z,20.62
2023-05-22T20:26:01.872Z,20.60
2023-05-22T20:29:03.421Z,20.60
2023-05-22T20:32:05.305Z,20.60
2023-05-22T20:35:07.283Z,20.59
2023-05-22T20:38:09.780Z,20.58
2023-05-22T20:41:12.805Z,20.57
2023-05-22T20:44:16.216Z,20.56
2023-05-22T20:47:17.752Z,20.56
2023-05-22T20:50:19.343Z,20.55
2023-05-22T20:53:20.950Z,20.54
2023-05-22T20:56:22.731Z,20.53
2023-05-22T20:59:24.248Z,20.51
2023-05-22T21:02:26.198Z,20.51
2023-05-22T21:05:27.808Z,20.52
2023-05-22T21:08:29.301Z,20.50
2023-05-22T21:11:30.822Z,20.50
2023-05-22T21:14:32.459Z,20.49
2023-05-22T21:17:34.237Z,20.48
2023-05-22T21:20:35.734Z,20.48
2023-05-22T21:23:37.238Z,20.47
2023-05-22T21:26:38.944Z,20.47
2023-05-22T21:29:40.563Z,20.46
2023-05-22T21:32:43.034Z,20.45
2023-05-22T21:35:44.602Z,20.44
2023-05-22T21:38:46.534Z,20.45
2023-05-22T21:41:49.860Z,20.45
2023-05-22T21:44:51.599Z,20.44
2023-05-22T21:47:53.144Z,20.43
2023-05-22T21:50:54.773Z,20.43
2023-05-22T21:53:56.318Z,20.44
2023-05-22T21:56:57.894Z,20.42
2023-05-22T21:59:59.822Z,20.42
2023-05-22T22:03:01.737Z,20.42
2023-05-22T22:06:04.052Z,20.41
2023-05-22T22:09:05.725Z,20.41
2023-05-22T22:12:07.609Z,20.41
2023-05-22T22:15:12.055Z,20.41
2023-05-22T22:18:15.751Z,20.41
2023-05-22T22:21:17.415Z,20.40
2023-05-22T22:24:19.012Z,20.40
2023-05-22T22:27:20.787Z,20.40
2023-05-22T22:30:22.458Z,20.39
2023-05-22T22:33:24.664Z,20.38
2023-05-22T22:36:26.280Z,20.39
2023-05-22T22:39:27.751Z,20.38
2023-05-22T22:42:29.282Z,20.38
2023-05-22T22:45:31.267Z,20.38
2023-05-22T22:48:33.726Z,20.38
2023-05-22T22:51:35.479Z,20.38
2023-05-22T22:54:37.086Z,20.38
2023-05-22T22:57:38.908Z,20.38
2023-05-22T23:00:40.418Z,20.37
2023-05-22T23:03:42.200Z,20.37
2023-05-22T23:06:43.813Z,20.36
2023-05-22T23:09:45.309Z,20.36
2023-05-22T23:12:48.276Z,20.36
2023-05-22T23:18:51.531Z,20.35
2023-05-22T23:21:53.538Z,20.34
2023-05-22T23:24:55.085Z,20.35
2023-05-22T23:27:56.577Z,20.33
2023-05-22T23:30:58.581Z,20.34
2023-05-22T23:34:00.142Z,20.33
2023-05-22T23:37:01.676Z,20.32
2023-05-22T23:40:04.946Z,20.32
2023-05-22T23:43:06.513Z,20.33
2023-05-22T23:46:08.030Z,20.32
2023-05-22T23:49:09.540Z,20.31
2023-05-22T23:52:12.229Z,20.32
2023-05-22T23:55:13.951Z,20.31
2023-05-22T23:58:15.973Z,20.31
